Time,TemperatureF,DewpointF,PressureIn,WindDirection,WindDirectionDegrees,WindSpeedMPH,WindSpeedGustMPH,Humidity,HourlyPrecipIn,Conditions,Clouds,dailyrainin,SoftwareType,DateUTC
2013-05-27 00:02:00,59.0,59.0,-100.00,NE,45,11.0,15.0,99,0.00,,,-99.99,,2013-05-27 05:02:00,
2013-05-27 00:12:00,59.0,59.0,-100.00,NE,35,6.0,14.0,99,0.00,,,-99.99,,2013-05-27 05:12:00,
2013-05-27 00:22:00,59.0,59.0,-100.00,NE,35,6.0,14.0,99,0.00,,,-99.99,,2013-05-27 05:22:00,
2013-05-27 00:32:00,59.0,59.0,-100.00,ENE,60,8.0,16.0,99,0.00,,,-99.99,,2013-05-27 05:32:00,
2013-05-27 00:42:00,59.0,59.0,-100.00,ENE,60,8.0,16.0,99,0.00,,,-99.99,,2013-05-27 05:42:00,
2013-05-27 00:52:00,59.0,59.0,-100.00,ENE,60,16.0,19.0,99,0.00,,,-99.99,,2013-05-27 05:52:00,
2013-05-27 01:01:00,59.0,59.0,-100.00,ENE,60,11.0,17.0,99,0.21,,,-99.99,,2013-05-27 06:01:00,
2013-05-27 01:11:00,59.0,59.0,-100.00,ENE,60,11.0,17.0,99,0.21,,,-99.99,,2013-05-27 06:11:00,
2013-05-27 01:21:00,59.0,59.0,-100.00,NE,55,10.0,17.0,99,0.00,,,-99.99,,2013-05-27 06:21:00,
2013-05-27 01:32:00,59.0,59.0,-100.00,NE,55,7.0,12.0,99,0.00,,,-99.99,,2013-05-27 06:32:00,
2013-05-27 01:42:00,59.0,59.0,-100.00,ENE,65,5.0,14.0,99,0.00,,,-99.99,,2013-05-27 06:42:00,
2013-05-27 01:52:00,59.0,59.0,-100.00,North,5,5.0,9.0,99,0.00,,,-99.99,,2013-05-27 06:52:00,
2013-05-27 02:02:00,59.0,59.0,-100.00,North,5,5.0,9.0,99,0.00,,,-99.99,,2013-05-27 07:02:00,
2013-05-27 02:11:00,59.0,59.0,-100.00,NE,45,6.0,9.0,99,0.00,,,-99.99,,2013-05-27 07:11:00,
2013-05-27 02:21:00,59.0,59.0,-100.00,NNE,25,7.0,9.0,99,0.00,,,-99.99,,2013-05-27 07:21:00,
2013-05-27 02:32:00,59.0,59.0,-100.00,North,5,4.0,10.0,99,0.00,,,-99.99,,2013-05-27 07:32:00,
2013-05-27 02:42:00,59.0,59.0,-100.00,NNE,20,7.0,9.0,99,0.00,,,-99.99,,2013-05-27 07:42:00,
2013-05-27 02:52:00,59.0,59.0,-100.00,NE,35,6.0,11.0,99,1.03,,,-99.99,,2013-05-27 07:52:00,
2013-05-27 03:02:00,59.0,59.0,-100.00,NE,35,6.0,11.0,99,1.03,,,-99.99,,2013-05-27 08:02:00,
2013-05-27 03:11:00,59.0,59.0,-100.00,NE,40,7.0,12.0,99,0.91,,,-99.99,,2013-05-27 08:11:00,
2013-05-27 03:22:00,59.0,59.0,-100.00,NE,45,6.0,12.0,99,0.00,,,-99.99,,2013-05-27 08:22:00,
2013-05-27 03:32:00,59.0,59.0,-100.00,NE,55,6.0,8.0,99,0.00,,,-99.99,,2013-05-27 08:32:00,
2013-05-27 03:42:00,59.0,59.0,-100.00,NE,55,6.0,8.0,99,0.00,,,-99.99,,2013-05-27 08:42:00,
2013-05-27 03:52:00,59.0,59.0,-100.00,ENE,60,10.0,14.0,99,0.00,,,-99.99,,2013-05-27 08:52:00,
2013-05-27 04:02:00,59.0,59.0,-100.00,ENE,60,10.0,14.0,99,0.00,,,-99.99,,2013-05-27 09:02:00,
2013-05-27 04:11:00,59.0,59.0,-100.00,ENE,65,7.0,11.0,99,0.00,,,-99.99,,2013-05-27 09:11:00,
2013-05-27 04:21:00,59.0,59.0,-100.00,ENE,70,6.0,9.0,99,0.00,,,-99.99,,2013-05-27 09:21:00,
2013-05-27 04:33:00,59.0,59.0,-100.00,ENE,65,6.0,14.0,99,0.00,,,-99.99,,2013-05-27 09:33:00,
2013-05-27 04:42:00,59.0,59.0,-100.00,ENE,65,6.0,14.0,99,0.00,,,-99.99,,2013-05-27 09:42:00,
2013-05-27 04:52:00,60.0,59.0,-100.00,SSE,150,24.0,32.0,99,0.00,,,-99.99,,2013-05-27 09:52:00,
2013-05-27 05:02:00,58.0,58.0,-100.00,ESE,120,7.0,18.0,99,13.61,,,-99.99,,2013-05-27 10:02:00,
2013-05-27 05:12:00,58.0,58.0,-100.00,East,85,2.0,8.0,99,2.78,,,-99.99,,2013-05-27 10:12:00,
2013-05-27 05:22:00,58.0,58.0,-100.00,East,85,2.0,8.0,99,2.78,,,-99.99,,2013-05-27 10:22:00,
2013-05-27 05:32:00,58.0,58.0,-100.00,South,185,6.0,7.0,99,1.59,,,-99.99,,2013-05-27 10:32:00,
2013-05-27 05:42:00,58.0,58.0,-100.00,South,185,6.0,7.0,99,1.59,,,-99.99,,2013-05-27 10:42:00,
2013-05-27 05:52:00,58.0,58.0,-100.00,South,180,4.0,7.0,99,1.05,,,-99.99,,2013-05-27 10:52:00,
2013-05-27 06:02:00,58.0,58.0,-100.00,ESE,110,3.0,6.0,99,2.76,,,-99.99,,2013-05-27 11:02:00,
2013-05-27 06:11:00,58.0,58.0,-100.00,ESE,110,3.0,6.0,99,2.76,,,-99.99,,2013-05-27 11:11:00,
2013-05-27 06:22:00,58.0,58.0,-100.00,ESE,110,5.0,7.0,99,2.30,,,-99.99,,2013-05-27 11:22:00,
2013-05-27 06:32:00,58.0,58.0,-100.00,South,180,1.0,6.0,99,5.68,,,-99.99,,2013-05-27 11:32:00,
2013-05-27 06:42:00,59.0,58.0,-100.00,South,185,1.0,6.0,99,4.72,,,-99.99,,2013-05-27 11:42:00,
2013-05-27 06:52:00,59.0,59.0,-100.00,SE,135,2.0,4.0,99,4.00,,,-99.99,,2013-05-27 11:52:00,
2013-05-27 07:01:00,59.0,59.0,-100.00,SE,135,2.0,4.0,99,4.00,,,-99.99,,2013-05-27 12:01:00,
2013-05-27 07:11:00,59.0,59.0,-100.00,SE,125,6.0,9.0,99,5.71,,,-99.99,,2013-05-27 12:11:00,
2013-05-27 07:21:00,59.0,59.0,-100.00,ESE,120,2.0,9.0,99,4.73,,,-99.99,,2013-05-27 12:21:00,
2013-05-27 07:32:00,59.0,59.0,-100.00,SSE,155,4.0,9.0,99,4.78,,,-99.99,,2013-05-27 12:32:00,
2013-05-27 07:42:00,59.0,59.0,-100.00,SSE,155,4.0,9.0,99,4.78,,,-99.99,,2013-05-27 12:42:00,
2013-05-27 07:52:00,59.0,59.0,-100.00,SE,125,7.0,13.0,99,4.44,,,-99.99,,2013-05-27 12:52:00,
2013-05-27 08:01:00,59.0,59.0,-100.00,ESE,120,8.0,17.0,99,4.82,,,-99.99,,2013-05-27 13:01:00,
2013-05-27 08:11:00,59.0,59.0,-100.00,ESE,110,9.0,21.0,99,4.17,,,-99.99,,2013-05-27 13:11:00,
2013-05-27 08:22:00,59.0,59.0,-100.00,ESE,110,9.0,21.0,99,4.17,,,-99.99,,2013-05-27 13:22:00,
2013-05-27 08:32:00,59.0,59.0,-100.00,SE,125,9.0,22.0,99,2.03,,,-99.99,,2013-05-27 13:32:00,
2013-05-27 08:42:00,60.0,59.0,-100.00,ESE,115,14.0,24.0,99,1.18,,,-99.99,,2013-05-27 13:42:00,
2013-05-27 08:52:00,60.0,60.0,-100.00,East,80,16.0,34.0,99,0.55,,,-99.99,,2013-05-27 13:52:00,
2013-05-27 09:01:00,60.0,60.0,-100.00,East,80,16.0,34.0,99,0.55,,,-99.99,,2013-05-27 14:01:00,
2013-05-27 09:11:00,60.0,60.0,-100.00,East,95,12.0,31.0,99,0.00,,,-99.99,,2013-05-27 14:11:00,
2013-05-27 09:21:00,61.0,61.0,-100.00,East,85,10.0,26.0,99,0.00,,,-99.99,,2013-05-27 14:21:00,
2013-05-27 09:32:00,62.0,62.0,-100.00,East,90,8.0,19.0,98,0.00,,,-99.99,,2013-05-27 14:32:00,
2013-05-27 09:42:00,62.0,62.0,-100.00,East,90,8.0,19.0,98,0.00,,,-99.99,,2013-05-27 14:42:00,
2013-05-27 09:51:00,62.0,60.0,-100.00,SSE,150,16.0,22.0,93,0.00,,,-99.99,,2013-05-27 14:51:00,
2013-05-27 10:01:00,62.0,60.0,-100.00,SSE,150,16.0,22.0,93,0.00,,,-99.99,,2013-05-27 15:01:00,
2013-05-27 10:11:00,63.0,60.0,-100.00,SSE,165,17.0,21.0,89,0.00,,,-99.99,,2013-05-27 15:11:00,
2013-05-27 10:21:00,63.0,60.0,-100.00,SSE,165,17.0,21.0,89,0.00,,,-99.99,,2013-05-27 15:21:00,
2013-05-27 10:33:00,64.0,60.0,-100.00,ESE,120,4.0,9.0,87,0.00,,,-99.99,,2013-05-27 15:33:00,
2013-05-27 10:43:00,64.0,60.0,-100.00,ESE,120,4.0,9.0,87,0.00,,,-99.99,,2013-05-27 15:43:00,
2013-05-27 10:53:00,64.0,61.0,-100.00,SSE,150,2.0,7.0,87,0.00,,,-99.99,,2013-05-27 15:53:00,
2013-05-27 11:03:00,64.0,61.0,-100.00,SSE,150,2.0,7.0,87,0.00,,,-99.99,,2013-05-27 16:03:00,
2013-05-27 11:12:00,65.0,61.0,-100.00,SSE,165,0.0,5.0,85,0.00,,,-99.99,,2013-05-27 16:12:00,
2013-05-27 11:23:00,66.0,61.0,-100.00,ENE,65,7.0,8.0,84,0.00,,,-99.99,,2013-05-27 16:23:00,
2013-05-27 11:33:00,66.0,61.0,-100.00,ENE,60,9.0,13.0,84,0.00,,,-99.99,,2013-05-27 16:33:00,
2013-05-27 11:42:00,65.0,61.0,-100.00,NE,50,15.0,20.0,84,0.00,,,-99.99,,2013-05-27 16:42:00,
2013-05-27 11:52:00,67.0,62.0,-100.00,ENE,65,6.0,9.0,83,0.00,,,-99.99,,2013-05-27 16:52:00,
2013-05-27 12:02:00,67.0,62.0,-100.00,ENE,65,6.0,9.0,83,0.00,,,-99.99,,2013-05-27 17:02:00,
2013-05-27 12:11:00,68.0,61.0,-100.00,SE,145,2.0,5.0,79,0.00,,,-99.99,,2013-05-27 17:11:00,
2013-05-27 12:22:00,68.0,60.0,-100.00,NE,55,6.0,9.0,76,0.00,,,-99.99,,2013-05-27 17:22:00,
2013-05-27 12:32:00,68.0,60.0,-100.00,East,85,2.0,6.0,77,0.00,,,-99.99,,2013-05-27 17:32:00,
2013-05-27 12:43:00,68.0,60.0,-100.00,East,85,2.0,6.0,77,0.00,,,-99.99,,2013-05-27 17:43:00,
2013-05-27 12:52:00,68.0,60.0,-100.00,ESE,105,2.0,6.0,76,0.00,,,-99.99,,2013-05-27 17:52:00,
2013-05-27 13:02:00,68.0,60.0,-100.00,ESE,105,1.0,5.0,76,0.00,,,-99.99,,2013-05-27 18:02:00,
2013-05-27 13:11:00,68.0,60.0,-100.00,ESE,105,1.0,5.0,76,0.00,,,-99.99,,2013-05-27 18:11:00,
2013-05-27 13:22:00,68.0,60.0,-100.00,ENE,70,1.0,1.0,77,0.00,,,-99.99,,2013-05-27 18:22:00,
2013-05-27 13:32:00,69.0,61.0,-100.00,SW,225,4.0,6.0,76,0.00,,,-99.99,,2013-05-27 18:32:00,
2013-05-27 13:42:00,68.0,61.0,-100.00,SSW,210,4.0,7.0,78,0.00,,,-99.99,,2013-05-27 18:42:00,
2013-05-27 13:52:00,68.0,61.0,-100.00,North,0,3.0,7.0,79,0.00,,,-99.99,,2013-05-27 18:52:00,
2013-05-27 14:01:00,68.0,61.0,-100.00,North,0,3.0,7.0,79,0.00,,,-99.99,,2013-05-27 19:01:00,
2013-05-27 14:11:00,68.0,61.0,-100.00,SW,215,4.0,9.0,79,0.00,,,-99.99,,2013-05-27 19:11:00,
2013-05-27 14:21:00,68.0,62.0,-100.00,SSW,195,4.0,9.0,79,0.00,,,-99.99,,2013-05-27 19:21:00,
2013-05-27 14:32:00,71.0,62.0,-100.00,North,5,6.0,12.0,73,0.00,,,-99.99,,2013-05-27 19:32:00,
2013-05-27 14:42:00,71.0,62.0,-100.00,SW,215,7.0,12.0,71,0.00,,,-99.99,,2013-05-27 19:42:00,
2013-05-27 14:52:00,71.0,61.0,-100.00,North,10,7.0,10.0,70,0.00,,,-99.99,,2013-05-27 19:52:00,
2013-05-27 15:01:00,71.0,61.0,-100.00,North,10,7.0,10.0,70,0.00,,,-99.99,,2013-05-27 20:01:00,
2013-05-27 15:11:00,72.0,61.0,-100.00,NNE,15,9.0,11.0,69,0.00,,,-99.99,,2013-05-27 20:11:00,
2013-05-27 15:22:00,72.0,61.0,-100.00,NNE,15,9.0,11.0,69,0.00,,,-99.99,,2013-05-27 20:22:00,
2013-05-27 15:32:00,72.0,62.0,-100.00,North,10,6.0,9.0,70,0.00,,,-99.99,,2013-05-27 20:32:00,
2013-05-27 15:42:00,72.0,62.0,-100.00,North,10,6.0,9.0,70,0.00,,,-99.99,,2013-05-27 20:42:00,
2013-05-27 15:52:00,72.0,62.0,-100.00,North,10,7.0,11.0,68,0.00,,,-99.99,,2013-05-27 20:52:00,
2013-05-27 16:01:00,72.0,62.0,-100.00,North,10,7.0,11.0,68,0.00,,,-99.99,,2013-05-27 21:01:00,
2013-05-27 16:12:00,74.0,62.0,-100.00,North,10,6.0,9.0,64,0.00,,,-99.99,,2013-05-27 21:12:00,
2013-05-27 16:21:00,75.0,62.0,-100.00,North,0,6.0,9.0,62,0.00,,,-99.99,,2013-05-27 21:21:00,
2013-05-27 16:33:00,75.0,62.0,-100.00,North,0,6.0,9.0,62,0.00,,,-99.99,,2013-05-27 21:33:00,
2013-05-27 16:43:00,75.0,61.0,-100.00,North,10,2.0,7.0,60,0.00,,,-99.99,,2013-05-27 21:43:00,
2013-05-27 16:53:00,76.0,61.0,-100.00,South,185,6.0,9.0,59,0.00,,,-99.99,,2013-05-27 21:53:00,
2013-05-27 17:02:00,76.0,61.0,-100.00,South,185,6.0,9.0,59,0.00,,,-99.99,,2013-05-27 22:02:00,
2013-05-27 17:12:00,75.0,60.0,-100.00,South,190,5.0,9.0,59,0.00,,,-99.99,,2013-05-27 22:12:00,
2013-05-27 17:22:00,75.0,60.0,-100.00,South,185,5.0,9.0,58,0.00,,,-99.99,,2013-05-27 22:22:00,
2013-05-27 17:33:00,76.0,61.0,-100.00,South,185,3.0,8.0,58,0.00,,,-99.99,,2013-05-27 22:33:00,
2013-05-27 17:42:00,78.0,61.0,-100.00,SSW,205,6.0,9.0,56,0.00,,,-99.99,,2013-05-27 22:42:00,
2013-05-27 17:52:00,77.0,60.0,-100.00,NNE,20,1.0,6.0,56,0.00,,,-99.99,,2013-05-27 22:52:00,
2013-05-27 18:02:00,77.0,60.0,-100.00,NNE,20,1.0,6.0,56,0.00,,,-99.99,,2013-05-27 23:02:00,
2013-05-27 18:12:00,78.0,60.0,-100.00,NE,55,1.0,6.0,54,0.00,,,-99.99,,2013-05-27 23:12:00,
2013-05-27 18:22:00,74.0,59.0,-100.00,NNE,15,3.0,4.0,60,0.00,,,-99.99,,2013-05-27 23:22:00,
2013-05-27 18:32:00,73.0,59.0,-100.00,NNE,25,2.0,4.0,62,0.00,,,-99.99,,2013-05-27 23:32:00,
2013-05-27 18:42:00,73.0,59.0,-100.00,NNE,25,2.0,4.0,62,0.00,,,-99.99,,2013-05-27 23:42:00,
2013-05-27 18:52:00,73.0,60.0,-100.00,NNE,30,3.0,4.0,64,0.00,,,-99.99,,2013-05-27 23:52:00,
2013-05-27 19:01:00,73.0,60.0,-100.00,NNE,30,3.0,4.0,64,0.00,,,-99.99,,2013-05-28 00:01:00,
2013-05-27 19:11:00,74.0,61.0,-100.00,NNE,30,3.0,4.0,64,0.00,,,-99.99,,2013-05-28 00:11:00,
2013-05-27 19:21:00,73.0,61.0,-100.00,NE,35,6.0,6.0,65,0.00,,,-99.99,,2013-05-28 00:21:00,
2013-05-27 19:31:00,72.0,62.0,-100.00,NE,45,6.0,7.0,69,0.00,,,-99.99,,2013-05-28 00:31:00,
2013-05-27 19:41:00,72.0,62.0,-100.00,NE,45,6.0,7.0,69,0.00,,,-99.99,,2013-05-28 00:41:00,
2013-05-27 19:52:00,72.0,62.0,-100.00,ENE,60,4.0,7.0,70,0.00,,,-99.99,,2013-05-28 00:52:00,
2013-05-27 20:01:00,72.0,62.0,-100.00,ENE,70,3.0,5.0,71,0.00,,,-99.99,,2013-05-28 01:01:00,
2013-05-27 20:11:00,71.0,63.0,-100.00,ENE,70,2.0,6.0,73,0.00,,,-99.99,,2013-05-28 01:11:00,
2013-05-27 20:21:00,71.0,63.0,-100.00,ENE,70,2.0,6.0,73,0.00,,,-99.99,,2013-05-28 01:21:00,
2013-05-27 20:32:00,71.0,63.0,-100.00,ENE,70,1.0,4.0,75,0.00,,,-99.99,,2013-05-28 01:32:00,
2013-05-27 20:41:00,71.0,63.0,-100.00,ENE,70,1.0,4.0,75,0.00,,,-99.99,,2013-05-28 01:41:00,
2013-05-27 20:52:00,70.0,63.0,-100.00,ENE,75,2.0,3.0,77,1.11,,,-99.99,,2013-05-28 01:52:00,
2013-05-27 21:02:00,69.0,64.0,-100.00,ENE,65,1.0,2.0,84,0.00,,,-99.99,,2013-05-28 02:02:00,
2013-05-27 21:11:00,69.0,64.0,-100.00,ENE,65,1.0,2.0,84,0.00,,,-99.99,,2013-05-28 02:11:00,
2013-05-27 21:21:00,68.0,65.0,-100.00,NE,40,0.0,4.0,87,0.00,,,-99.99,,2013-05-28 02:21:00,
2013-05-27 21:32:00,68.0,65.0,-100.00,NE,40,3.0,4.0,90,0.00,,,-99.99,,2013-05-28 02:32:00,
2013-05-27 21:42:00,68.0,65.0,-100.00,NE,45,1.0,2.0,91,0.00,,,-99.99,,2013-05-28 02:42:00,
2013-05-27 21:52:00,67.0,65.0,-100.00,ENE,65,4.0,6.0,93,0.00,,,-99.99,,2013-05-28 02:52:00,
2013-05-27 22:01:00,68.0,65.0,-100.00,ENE,70,3.0,7.0,92,0.00,,,-99.99,,2013-05-28 03:01:00,
2013-05-27 22:11:00,68.0,65.0,-100.00,ENE,70,3.0,7.0,92,0.00,,,-99.99,,2013-05-28 03:11:00,
2013-05-27 22:21:00,68.0,66.0,-100.00,ENE,65,3.0,6.0,92,0.00,,,-99.99,,2013-05-28 03:21:00,
2013-05-27 22:33:00,68.0,65.0,-100.00,ENE,70,3.0,4.0,92,0.00,,,-99.99,,2013-05-28 03:33:00,
2013-05-27 22:43:00,68.0,65.0,-100.00,ENE,75,2.0,6.0,92,0.00,,,-99.99,,2013-05-28 03:43:00,
2013-05-27 22:53:00,68.0,65.0,-100.00,ENE,70,3.0,6.0,92,0.00,,,-99.99,,2013-05-28 03:53:00,
2013-05-27 23:02:00,68.0,65.0,-100.00,ENE,70,3.0,6.0,92,0.00,,,-99.99,,2013-05-28 04:02:00,
2013-05-27 23:13:00,68.0,65.0,-100.00,ENE,65,3.0,4.0,93,0.00,,,-99.99,,2013-05-28 04:13:00,
2013-05-27 23:22:00,68.0,65.0,-100.00,ENE,60,4.0,5.0,93,0.00,,,-99.99,,2013-05-28 04:22:00,
2013-05-27 23:33:00,67.0,65.0,-100.00,NE,55,4.0,6.0,93,0.00,,,-99.99,,2013-05-28 04:33:00,
2013-05-27 23:43:00,67.0,65.0,-100.00,ENE,60,4.0,6.0,93,0.00,,,-99.99,,2013-05-28 04:43:00,
2013-05-27 23:52:00,67.0,65.0,-100.00,East,85,1.0,6.0,93,0.00,,,-99.99,,2013-05-28 04:52:00,